North Island Naval Air Station-Halsey Field
KNZY : now visible

Airfield :











YOU CAN JOIN US ON...

 
LOGIN :

Register | Disclaimer

   EN    FR    IT 

 









Legend :    VFR   Marginal VFR   IFR   Intensive IFR   Very Intensive IFR
Visi :
Ceiling :
>= 8 km
>= 3000ft
5 to 8 km
1000 to 3000 ft
1500m to 5 km
500 to 1000 ft
800 to 1500m
200 to 500 ft
< 800m
< 200 ft
Symbols :   Thunderstorms  Fog  Heavy snow  Heavy precipitations  Wind > 20 kt






- Airport Elevation : 26 ft


KNZY - North Island Naval Air Station-Halsey Field

CURRENT METAR :
  • 271352Z 07003KT 10SM SCT250 10/03 A3012 RMK AO2 SLP200 T01000033

EXPIRED METARs :
  • 271252Z 33004KT 10SM FEW250 11/03 A3013 RMK AO2 SLP201 T01110033
  • 271152Z 00000KT 10SM CLR 11/03 A3014 RMK AO2 SLP206 T01060033 10161 20100 58009

TAF TAF KNZY
Valid from the 27 at 07:00 until the 28 at 07:00 UTC


2707/2807 VRB05KT 9999 FEW250 WSCONDS 530109 QNH3010INS
FM272000 31009KT 9999 FEW250 WSCONDS 530109 QNH3007INS
FM280300 VRB05KT 9999 SCT200 500000 QNH3008INS T13/2714Z T25/2721Z FS30136



MET'MAP, your aeronautical weather chart ! - Copyright ORBIFLY December 2007 - Disclaimer

ORBIFLY MET'MAP TEAM :

Programming & Development : Alexandra Zaïnal
Concept & original design : Baudouin d'Aumeries
Assistance for programming : Marc-Olivier Méhu
Technical & hardware support : Manuel Goepfert

Contact : metmap@orbifly.com




SOURCES & CREDITS :

   NOAA       Earth
Advisory